Merritt Island, Florida
Current Conditions -  °F | °C
As of 10:58 AM on Friday 19 Dec 2014 (Local Time) from KCOF Reporting Station
Clear Clear  
Wind Chill: 66°   Ceiling: Unl
Heat Index: 66°   Visibility: 10mi
Dew Point: 51°   Wind: 5mph
Humidity: 60%   Direction: 320°NW
Pressure: 30.14"   Gusts: NA
Location:  28.36°N, 80.68°W
Report Text: KCOF 191558Z AUTO 32004KT 10SM CLR 19/11 A3014 RMK AO2 SLP211 T01880108
Loading
Personal Weather Stations






























Interactive Weather Map New forecast layout! Learn more

10-Day Weather Forecast

Advertisements
Track Severe Weather on mobile